This is the latest recevied weather packets stored in our database for station/object W3JBS-2. If no packets are shown the sender has not sent any weather packets the latest 10 day(s).
| Time | Temp. | Humidity | Pressure | Rain* | Wind** | Luminosity | Snow |
|---|---|---|---|---|---|---|---|
| 1787542582 | 16.11° C | 88% | 1018.4 hPa | 0 mm | - | 1726 W/m² | - |
| 1787541683 | 16.11° C | 88% | 1014.4 hPa | 0 mm | - | 1726 W/m² | - |
| 1787539883 | 16.67° C | 87% | 1008.7 hPa | 0 mm | - | 1724 W/m² | - |
| 1787538983 | 16.67° C | 87% | 1024.1 hPa | 0 mm | - | 1723 W/m² | - |
| 1787538083 | 16.67° C | 87% | 1026.7 hPa | 0 mm | - | 1724 W/m² | - |
| 1787537183 | 16.67° C | 87% | 1025.4 hPa | 0 mm | - | 1724 W/m² | - |
| 1787535383 | 17.22° C | 86% | 1029.6 hPa | 0 mm | - | 1724 W/m² | - |
| 1787534483 | 17.22° C | 85% | 1029.4 hPa | 0 mm | - | 1724 W/m² | - |
| 1787532683 | 17.78° C | 84% | 1019.6 hPa | 0 mm | - | 1723 W/m² | - |
| 1787531783 | 18.33° C | 83% | 1026.4 hPa | 0 mm | - | 1721 W/m² | - |
| 1787530883 | 18.89° C | 82% | 1027.9 hPa | 0 mm | - | 1719 W/m² | - |
| 1787529982 | 19.44° C | 80% | 956.7 hPa | 0 mm | - | 1717 W/m² | - |
| 1787529083 | 20.56° C | 80% | 956.7 hPa | 0 mm | - | 1714 W/m² | - |
| 1787528183 | 21.11° C | 78% | 956.7 hPa | 0.25 mm | - | 1709 W/m² | - |
| 1787527283 | 21.67° C | 76% | 956.7 hPa | 0.25 mm | - | 1703 W/m² | - |
| 1787526383 | 22.22° C | 73% | 901.4 hPa | 0.25 mm | - | 1703 W/m² | - |
| 1787525483 | 22.78° C | 71% | 901.4 hPa | 0.25 mm | - | 1700 W/m² | - |
| 1787523683 | 25.56° C | 61% | 901.4 hPa | 0 mm | - | 1684 W/m² | - |
| 1787522783 | 26.11° C | 59% | 901.4 hPa | 0 mm | - | 1682 W/m² | - |
| 1787521883 | 26.67° C | 59% | 926.7 hPa | 0 mm | - | 1680 W/m² | - |
| 1787520982 | 26.67° C | 59% | 911.2 hPa | 0 mm | - | 1680 W/m² | - |
| 1787520083 | 27.22° C | 57% | 961.1 hPa | 0 mm | - | 1677 W/m² | - |
| 1787518282 | 26.67° C | 57% | 1008.8 hPa | 0 mm | - | 1672 W/m² | - |
| 1787517383 | 26.67° C | 55% | 1007 hPa | 0 mm | - | 1665 W/m² | - |
| 1787516483 | 27.22° C | 56% | 997.5 hPa | 0 mm | - | 1656 W/m² | - |
* Rain latest hour (hover to see other rain measurements)
** Current wind speed in m/s (hover to see current wind gust speed)